SLSB/SRJ METAR and TAF weather

Enter ICAO airport designator
Station Type Date Time Source
SLSB METAR 2021/07/27 22:00 UTC NOAA

SLSB 272200Z 14014KT 9999 SCT015 BKN020 18/15 Q1016


Station Type Date Time Source
SLSB Decoded METAR 2021/07/27 22:00 UTC NOAA

San Borja, Bolivia (SLSB) 14-52S 066-52W
Jul 27, 2021 - 06:00 PM EDT / 2021.07.27 2200 UTC
Wind: from the SE (140 degrees) at 16 MPH (14 KT):0
Visibility: greater than 7 mile(s):0
Sky conditions: mostly cloudy
Temperature: 64 F (18 C)
Dew Point: 59 F (15 C)
Relative Humidity: 82%
Pressure (altimeter): 30.00 in. Hg (1016 hPa)
ob: SLSB 272200Z 14014KT 9999 SCT015 BKN020 18/15 Q1016
cycle: 22

Station Type Date Time Source
SLSB TAF UTC NOAA

Error!

Example: see airport list